In Rescue
 
Open Full Screen Window  High Contrast Mode
January 28, 2020 11:35 PM CST
Weather Information
Wind Direction
  ---
Wind Speed
  00 kt (0 mph)
Wind Gust
  00 kt (0 mph)
Altimeter
30.15 in
Visibility
10 SM
Temperature
-09° C
16° F
Dewpoint
-10° C
14° F
Humidity
93%
1hr Rain Fall
00.00 in.
24hr Rain Fall
00.00 in.
Sky Condition
Overcast @ 400 ft
LIFR

METAR KDXX 290535Z AUTO 00000KT 10SM OVC004 M09/M10 A3015 RMK AO2

FAA Disclaimer: The data displayed is for advisory purposes only and is not to be used for flight planning or operations.